Time;durP1;ratioP1;P1;durP2;ratioP2;P2;SDS_P1;SDS_P2;PMS_P1;PMS_P2;Temp;Humidity;BMP_temperature;BMP_pressure;BME280_temperature;BME280_humidity;BME280_pressure;Samples;Min_cycle;Max_cycle;Signal;HPM_P1;HPM_P2
2022/06/28 00:00:37;;;;;;;0.67;0.30;;;16.80;99.90;;;;;;4974548;28;20467;-83
2022/06/28 00:03:04;;;;;;;1.17;0.43;;;16.80;99.90;;;;;;4974260;28;20532;-83
2022/06/28 00:05:31;;;;;;;0.47;0.40;;;16.90;99.90;;;;;;4974643;28;20481;-83
2022/06/28 00:07:57;;;;;;;0.30;0.30;;;16.90;99.90;;;;;;4974726;28;20495;-82
2022/06/28 00:10:24;;;;;;;0.30;0.30;;;16.90;99.90;;;;;;4978522;28;20444;-83
2022/06/28 00:12:51;;;;;;;0.40;0.40;;;16.90;99.90;;;;;;4978485;28;20449;-83
2022/06/28 00:18:03;;;;;;;0.40;0.30;;;16.90;99.90;;;;;;4978544;28;20421;-82
2022/06/28 00:20:30;;;;;;;0.33;0.30;;;16.80;99.90;;;;;;4978037;28;20448;-83
2022/06/28 00:22:57;;;;;;;0.40;0.30;;;16.90;99.90;;;;;;4978061;28;20504;-83
2022/06/28 00:25:24;;;;;;;0.50;0.40;;;16.80;99.90;;;;;;4978157;28;20977;-83
2022/06/28 00:27:50;;;;;;;0.63;0.40;;;16.90;99.90;;;;;;4978582;28;20930;-83
2022/06/28 00:30:18;;;;;;;0.67;0.50;;;16.80;99.90;;;;;;4977846;28;20456;-83
2022/06/28 00:32:45;;;;;;;0.40;0.30;;;16.80;99.90;;;;;;4977916;28;20445;-83
2022/06/28 00:35:12;;;;;;;0.60;0.60;;;16.80;99.90;;;;;;4978007;28;20826;-83
2022/06/28 00:37:39;;;;;;;1.13;0.40;;;16.80;99.90;;;;;;4977990;28;20449;-83
2022/06/28 00:40:07;;;;;;;0.50;0.50;;;16.80;99.90;;;;;;4977960;28;20449;-83
2022/06/28 00:42:34;;;;;;;0.50;0.40;;;16.80;99.90;;;;;;4977565;28;20489;-83
2022/06/28 00:45:01;;;;;;;0.30;0.30;;;16.70;99.90;;;;;;4978024;28;20456;-83
2022/06/28 00:47:29;;;;;;;0.50;0.40;;;16.70;99.90;;;;;;4977859;28;20796;-83
2022/06/28 00:49:58;;;;;;;0.50;0.40;;;16.70;99.90;;;;;;4977477;28;20937;-83
2022/06/28 00:52:25;;;;;;;0.30;0.30;;;16.60;99.90;;;;;;4978009;28;20445;-83
2022/06/28 00:54:52;;;;;;;0.40;0.33;;;16.60;99.90;;;;;;4977861;28;20453;-83
2022/06/28 00:57:19;;;;;;;0.40;0.40;;;16.60;99.90;;;;;;4977635;28;20453;-83
2022/06/28 00:59:46;;;;;;;0.83;0.40;;;16.50;99.90;;;;;;4977606;28;20457;-83
2022/06/28 01:02:13;;;;;;;0.40;0.40;;;16.50;99.90;;;;;;4977581;28;20453;-83
2022/06/28 01:04:41;;;;;;;0.40;0.30;;;16.50;99.90;;;;;;4977408;28;20491;-83
2022/06/28 01:07:08;;;;;;;0.40;0.40;;;16.40;99.90;;;;;;4977426;28;20473;-83
2022/06/28 01:09:35;;;;;;;0.40;0.40;;;16.40;99.90;;;;;;4977190;28;20981;-83
2022/06/28 01:12:02;;;;;;;0.50;0.30;;;16.40;99.90;;;;;;4977403;28;20453;-83
2022/06/28 01:14:29;;;;;;;0.50;0.37;;;16.40;99.90;;;;;;4977112;28;20445;-83
2022/06/28 01:16:56;;;;;;;0.40;0.30;;;16.40;99.90;;;;;;4977254;28;20838;-83
2022/06/28 01:19:22;;;;;;;0.50;0.40;;;16.40;99.90;;;;;;4976368;28;20461;-83
2022/06/28 01:21:51;;;;;;;0.47;0.47;;;16.40;99.90;;;;;;4976589;28;20442;-83
2022/06/28 01:24:19;;;;;;;0.33;0.30;;;16.30;99.90;;;;;;4976927;28;20476;-83
2022/06/28 01:26:47;;;;;;;0.87;0.40;;;16.30;99.90;;;;;;4977099;28;20860;-83
2022/06/28 01:29:14;;;;;;;0.63;0.37;;;16.30;99.90;;;;;;4977321;28;20930;-83
2022/06/28 01:31:41;;;;;;;0.40;0.40;;;16.20;99.90;;;;;;4976844;28;20835;-83
2022/06/28 01:34:09;;;;;;;0.40;0.30;;;16.20;99.90;;;;;;4976796;28;20449;-83
2022/06/28 01:36:36;;;;;;;0.60;0.50;;;16.20;99.90;;;;;;4976914;28;20480;-83
2022/06/28 01:39:03;;;;;;;0.70;0.50;;;16.20;99.90;;;;;;4977000;28;20457;-83
2022/06/28 01:41:34;;;;;;;0.40;0.30;;;16.20;99.90;;;;;;4976595;28;20457;-83
2022/06/28 01:44:03;;;;;;;0.60;0.40;;;16.20;99.90;;;;;;4976806;28;20852;-83
2022/06/28 01:46:31;;;;;;;1.90;0.40;;;16.10;99.90;;;;;;4976743;28;20525;-83
2022/06/28 01:48:58;;;;;;;0.40;0.40;;;16.10;99.90;;;;;;4976721;28;20453;-83
2022/06/28 01:51:24;;;;;;;0.40;0.40;;;16.10;99.90;;;;;;4976727;28;20835;-83
2022/06/28 01:53:51;;;;;;;0.40;0.40;;;16.10;99.90;;;;;;4976672;28;20456;-83
2022/06/28 01:56:18;;;;;;;0.40;0.40;;;16.00;99.90;;;;;;4976561;28;20843;-83
2022/06/28 01:58:47;;;;;;;0.40;0.40;;;16.00;99.90;;;;;;4976639;28;20453;-83
2022/06/28 02:01:14;;;;;;;0.30;0.30;;;16.00;99.90;;;;;;4976300;28;20934;-83
2022/06/28 02:03:41;;;;;;;0.40;0.33;;;15.90;99.90;;;;;;4976437;28;20580;-83
2022/06/28 02:06:08;;;;;;;0.50;0.30;;;15.90;99.90;;;;;;4976066;28;20474;-83
2022/06/28 02:08:36;;;;;;;0.50;0.40;;;15.90;99.90;;;;;;4976129;28;20509;-83
2022/06/28 02:11:05;;;;;;;0.33;0.33;;;15.80;99.90;;;;;;4976273;28;20472;-83
2022/06/28 02:13:32;;;;;;;0.40;0.40;;;15.70;99.90;;;;;;4976064;28;20441;-83
2022/06/28 02:16:02;;;;;;;0.40;0.30;;;15.70;99.90;;;;;;4976239;28;20477;-83
2022/06/28 02:18:30;;;;;;;0.40;0.30;;;15.70;99.90;;;;;;4976238;28;20532;-84
2022/06/28 02:20:57;;;;;;;0.93;0.30;;;15.70;99.90;;;;;;4976241;28;20456;-84
2022/06/28 02:23:24;;;;;;;0.40;0.30;;;15.70;99.90;;;;;;4976063;28;20851;-83
2022/06/28 02:25:51;;;;;;;0.30;0.30;;;15.70;99.90;;;;;;4976009;28;20481;-83
2022/06/28 02:28:17;;;;;;;0.30;0.30;;;15.70;99.90;;;;;;4976043;28;20449;-83
2022/06/28 02:30:44;;;;;;;0.40;0.30;;;15.70;99.90;;;;;;4975439;28;20964;-84
2022/06/28 02:33:12;;;;;;;0.40;0.40;;;15.70;99.90;;;;;;4975980;28;20454;-83
2022/06/28 02:41:07;;;;;;;0.30;0.30;;;15.60;99.90;;;;;;4975779;28;20521;-83
2022/06/28 02:43:34;;;;;;;0.40;0.40;;;15.60;99.90;;;;;;4975716;28;20579;-83
2022/06/28 02:46:01;;;;;;;0.40;0.30;;;15.60;99.90;;;;;;4975412;28;20449;-84
2022/06/28 02:48:29;;;;;;;0.60;0.43;;;15.60;99.90;;;;;;4975429;28;20433;-84
2022/06/28 02:50:56;;;;;;;0.40;0.40;;;15.60;99.90;;;;;;4975299;28;20453;-83
2022/06/28 02:53:22;;;;;;;0.30;0.30;;;15.60;99.90;;;;;;4975591;28;20433;-83
2022/06/28 02:55:49;;;;;;;0.90;0.57;;;15.60;99.90;;;;;;4975491;28;20461;-84
2022/06/28 02:58:16;;;;;;;0.40;0.40;;;15.70;99.90;;;;;;4975484;28;20446;-84
2022/06/28 03:00:42;;;;;;;0.50;0.50;;;15.70;99.90;;;;;;4975446;28;20788;-84
2022/06/28 03:03:09;;;;;;;0.40;0.40;;;15.70;99.90;;;;;;4975329;28;20861;-84
2022/06/28 03:05:37;;;;;;;0.60;0.30;;;15.70;99.90;;;;;;4975313;28;20493;-84
2022/06/28 03:08:04;;;;;;;0.97;0.50;;;15.70;99.90;;;;;;4974876;28;20476;-84
2022/06/28 03:10:31;;;;;;;1.53;0.40;;;15.70;99.90;;;;;;4975059;28;20445;-84
2022/06/28 03:12:58;;;;;;;0.90;0.40;;;15.70;99.90;;;;;;4975285;28;20459;-84
2022/06/28 03:15:25;;;;;;;0.33;0.30;;;15.70;99.90;;;;;;4975254;28;20465;-84
2022/06/28 03:17:52;;;;;;;0.30;0.30;;;15.70;99.90;;;;;;4974897;28;20967;-84
2022/06/28 03:20:19;;;;;;;0.60;0.37;;;15.80;99.90;;;;;;4975210;28;20457;-84
2022/06/28 03:22:47;;;;;;;0.40;0.30;;;15.80;99.90;;;;;;4974800;28;20945;-83
2022/06/28 03:25:14;;;;;;;0.50;0.30;;;15.80;99.90;;;;;;4974958;28;20492;-84
2022/06/28 03:27:41;;;;;;;0.50;0.50;;;15.80;99.90;;;;;;4975058;28;20453;-84
2022/06/28 03:30:09;;;;;;;0.40;0.30;;;15.90;99.90;;;;;;4974751;28;20457;-84
2022/06/28 03:32:35;;;;;;;0.40;0.40;;;15.90;99.90;;;;;;4975110;28;20449;-84
2022/06/28 03:35:02;;;;;;;0.40;0.40;;;15.90;99.90;;;;;;4974959;28;20452;-84
2022/06/28 03:37:29;;;;;;;0.30;0.30;;;15.90;99.90;;;;;;4974947;28;20456;-83
2022/06/28 03:39:57;;;;;;;0.40;0.40;;;15.90;99.90;;;;;;4974928;28;20893;-83
2022/06/28 03:42:24;;;;;;;0.40;0.40;;;16.00;99.90;;;;;;4974601;28;20449;-84
2022/06/28 03:44:51;;;;;;;2.97;0.47;;;16.00;99.90;;;;;;4974442;28;20489;-83
2022/06/28 03:47:18;;;;;;;0.73;0.50;;;16.00;99.90;;;;;;4974503;28;20452;-83
2022/06/28 03:49:47;;;;;;;0.40;0.40;;;16.10;99.90;;;;;;4974451;28;20445;-83
2022/06/28 03:52:14;;;;;;;1.10;0.40;;;16.10;99.90;;;;;;4974413;28;20941;-83
2022/06/28 03:54:41;;;;;;;0.77;0.40;;;16.10;99.90;;;;;;4975521;28;20455;-82
2022/06/28 03:57:09;;;;;;;1.47;0.53;;;16.10;99.90;;;;;;4975567;28;20475;-82
2022/06/28 03:59:36;;;;;;;0.63;0.50;;;16.10;99.90;;;;;;4975584;28;20827;-82
2022/06/28 04:02:04;;;;;;;1.40;0.53;;;16.10;99.90;;;;;;4975518;28;20464;-82
2022/06/28 04:04:31;;;;;;;0.60;0.60;;;16.10;99.90;;;;;;4975397;28;21009;-83
2022/06/28 04:06:57;;;;;;;0.70;0.40;;;16.20;99.90;;;;;;4974935;28;20497;-83
2022/06/28 04:09:24;;;;;;;0.80;0.47;;;16.20;99.90;;;;;;4974194;28;20572;-83
2022/06/28 04:11:51;;;;;;;0.50;0.50;;;16.20;99.90;;;;;;4974183;28;20957;-83
2022/06/28 04:14:19;;;;;;;0.40;0.40;;;16.20;99.90;;;;;;4974503;28;20454;-83
2022/06/28 04:16:46;;;;;;;0.33;0.30;;;16.20;99.90;;;;;;4974093;28;20463;-83
2022/06/28 04:19:13;;;;;;;0.30;0.30;;;16.20;99.90;;;;;;4974449;28;20458;-83
2022/06/28 04:21:39;;;;;;;0.40;0.40;;;16.20;99.90;;;;;;4974108;28;20548;-83
2022/06/28 04:24:07;;;;;;;1.03;0.50;;;16.20;99.90;;;;;;4974328;28;20477;-83
2022/06/28 04:26:34;;;;;;;0.50;0.50;;;16.30;99.90;;;;;;4974235;28;20476;-83
2022/06/28 04:29:01;;;;;;;0.37;0.33;;;16.30;99.90;;;;;;4974316;28;20460;-83
2022/06/28 04:31:29;;;;;;;1.23;0.50;;;16.30;99.90;;;;;;4974328;28;20452;-83
2022/06/28 04:33:56;;;;;;;0.40;0.40;;;16.30;99.90;;;;;;4974181;28;20896;-83
2022/06/28 04:36:23;;;;;;;1.63;0.60;;;16.40;99.90;;;;;;4974474;28;20481;-83
2022/06/28 04:38:49;;;;;;;1.23;0.43;;;16.40;99.90;;;;;;4974187;28;20445;-83
2022/06/28 04:41:17;;;;;;;0.70;0.47;;;16.40;99.90;;;;;;4974219;28;20453;-83
2022/06/28 04:43:44;;;;;;;0.50;0.33;;;16.40;99.90;;;;;;4974118;28;20500;-83
2022/06/28 04:46:10;;;;;;;0.40;0.40;;;16.40;99.90;;;;;;4974070;28;20539;-83
2022/06/28 04:48:38;;;;;;;1.80;0.83;;;16.40;99.90;;;;;;4973948;28;20508;-83
2022/06/28 04:51:11;;;;;;;0.43;0.43;;;16.40;99.90;;;;;;4973970;28;20464;-83
2022/06/28 04:53:39;;;;;;;1.63;1.00;;;16.50;99.90;;;;;;4973983;28;20449;-82
2022/06/28 04:56:06;;;;;;;0.40;0.40;;;16.40;99.90;;;;;;4977450;28;20477;-82
2022/06/28 04:58:33;;;;;;;0.50;0.50;;;16.40;99.90;;;;;;4977650;28;20456;-83
2022/06/28 05:01:00;;;;;;;0.83;0.50;;;16.50;99.90;;;;;;4977632;28;20456;-83
2022/06/28 05:03:27;;;;;;;0.70;0.70;;;16.50;99.90;;;;;;4977568;28;20449;-83
2022/06/28 05:05:55;;;;;;;0.57;0.50;;;16.50;99.90;;;;;;4977402;28;20485;-83
2022/06/28 05:08:22;;;;;;;0.50;0.40;;;16.50;99.90;;;;;;4977231;28;20551;-82
2022/06/28 05:10:49;;;;;;;0.40;0.30;;;16.50;99.90;;;;;;4977502;28;20455;-83
2022/06/28 05:13:16;;;;;;;0.60;0.40;;;16.50;99.90;;;;;;4977476;28;20456;-83
2022/06/28 05:15:42;;;;;;;0.50;0.50;;;16.50;99.90;;;;;;4977348;28;20477;-83
2022/06/28 05:18:09;;;;;;;1.10;0.60;;;16.50;99.90;;;;;;4977578;28;20463;-83
2022/06/28 05:20:36;;;;;;;1.23;0.60;;;16.70;99.90;;;;;;4977014;28;20929;-83
2022/06/28 05:23:04;;;;;;;1.33;0.40;;;16.80;99.90;;;;;;4977275;28;20473;-83
2022/06/28 05:25:31;;;;;;;0.53;0.50;;;16.90;99.90;;;;;;4977038;28;20489;-83
2022/06/28 05:27:58;;;;;;;0.60;0.50;;;16.90;99.90;;;;;;4977145;28;20460;-83
2022/06/28 05:30:25;;;;;;;2.13;1.20;;;17.00;99.90;;;;;;4977491;28;20476;-83
2022/06/28 05:32:51;;;;;;;0.53;0.53;;;17.00;99.90;;;;;;4976705;28;20469;-82
2022/06/28 05:35:18;;;;;;;0.70;0.70;;;17.10;99.90;;;;;;4976585;28;20981;-83
2022/06/28 05:37:45;;;;;;;1.20;0.90;;;17.20;99.90;;;;;;4976958;28;20799;-83
2022/06/28 05:40:13;;;;;;;0.70;0.70;;;17.30;99.90;;;;;;4976926;28;20453;-83
2022/06/28 05:42:40;;;;;;;1.80;0.60;;;17.40;99.90;;;;;;4976502;28;20971;-83
2022/06/28 05:45:08;;;;;;;1.37;0.80;;;17.50;99.90;;;;;;4976425;28;20547;-82
2022/06/28 05:47:35;;;;;;;3.50;0.70;;;17.50;99.90;;;;;;4976784;28;20457;-82
2022/06/28 05:50:01;;;;;;;1.37;0.73;;;17.50;99.90;;;;;;4976486;28;20444;-83
2022/06/28 05:52:28;;;;;;;1.57;1.30;;;17.50;99.90;;;;;;4976432;28;20442;-82
2022/06/28 05:54:55;;;;;;;0.97;0.87;;;17.50;99.90;;;;;;4976545;28;20930;-83
2022/06/28 05:57:23;;;;;;;0.83;0.80;;;17.50;99.90;;;;;;4976240;28;20941;-82
2022/06/28 05:59:50;;;;;;;2.67;1.30;;;17.60;99.90;;;;;;4976549;28;20449;-83
2022/06/28 06:02:17;;;;;;;2.80;0.93;;;17.70;99.90;;;;;;4976528;28;20508;-83
2022/06/28 06:04:43;;;;;;;1.53;1.03;;;17.70;99.90;;;;;;4976384;28;20483;-82
2022/06/28 06:07:10;;;;;;;0.93;0.80;;;17.70;99.90;;;;;;4975742;28;20476;-83
2022/06/28 06:09:41;;;;;;;3.10;1.33;;;17.70;99.90;;;;;;4976179;28;21000;-82
2022/06/28 06:12:08;;;;;;;4.30;1.80;;;17.80;99.90;;;;;;4976377;28;20510;-82
2022/06/28 06:14:36;;;;;;;2.27;1.17;;;17.80;99.90;;;;;;4976278;28;20449;-82
2022/06/28 06:17:03;;;;;;;0.77;0.77;;;17.70;99.90;;;;;;4975930;28;20462;-82
2022/06/28 06:19:30;;;;;;;2.80;1.47;;;17.60;99.90;;;;;;4976025;28;20826;-82
2022/06/28 06:21:56;;;;;;;2.00;1.10;;;17.70;99.90;;;;;;4976110;28;20476;-82
2022/06/28 06:24:23;;;;;;;3.17;1.23;;;17.60;99.90;;;;;;4975805;28;20464;-82
2022/06/28 06:26:50;;;;;;;2.23;1.30;;;17.60;99.90;;;;;;4975788;28;20463;-83
2022/06/28 06:29:17;;;;;;;0.83;0.70;;;17.60;99.90;;;;;;4976056;28;20434;-83
2022/06/28 06:31:45;;;;;;;1.40;1.30;;;17.60;99.90;;;;;;4975690;28;20928;-81
2022/06/28 06:34:13;;;;;;;1.37;0.70;;;17.60;99.90;;;;;;4975670;28;20535;-81
2022/06/28 06:36:40;;;;;;;1.80;1.70;;;17.70;99.90;;;;;;4975743;28;20528;-82
2022/06/28 06:39:07;;;;;;;1.57;0.87;;;17.70;99.90;;;;;;4975902;28;20488;-81
2022/06/28 06:41:34;;;;;;;0.70;0.70;;;17.70;99.90;;;;;;4975491;28;20456;-81
2022/06/28 06:44:02;;;;;;;2.87;1.20;;;17.60;99.90;;;;;;4975811;28;20457;-81
2022/06/28 06:46:29;;;;;;;1.50;1.23;;;17.60;99.90;;;;;;4975706;28;20492;-81
2022/06/28 06:48:58;;;;;;;0.90;0.87;;;17.50;99.90;;;;;;4976221;28;20453;-81
2022/06/28 06:51:24;;;;;;;1.07;0.50;;;17.40;99.90;;;;;;4975649;28;20453;-81
2022/06/28 06:53:51;;;;;;;2.70;0.80;;;17.40;99.90;;;;;;4975286;28;20836;-80
2022/06/28 06:56:18;;;;;;;2.23;1.20;;;17.40;99.90;;;;;;4975589;28;20465;-81
2022/06/28 06:58:45;;;;;;;1.50;0.63;;;17.30;99.90;;;;;;4975623;28;20462;-81
2022/06/28 07:01:12;;;;;;;1.23;0.87;;;17.20;99.90;;;;;;4976291;28;20449;-81
2022/06/28 07:03:44;;;;;;;1.63;1.20;;;17.20;99.90;;;;;;4975761;28;20458;-81
2022/06/28 07:06:12;;;;;;;1.30;1.00;;;17.10;99.90;;;;;;4976067;28;20494;-80
2022/06/28 07:08:39;;;;;;;1.50;1.20;;;17.10;99.90;;;;;;4975850;28;20568;-80
2022/06/28 07:11:06;;;;;;;3.60;0.90;;;17.00;99.90;;;;;;4976114;28;20945;-81
2022/06/28 07:13:33;;;;;;;1.80;1.37;;;17.00;99.90;;;;;;4976776;28;20473;-81
2022/06/28 07:16:01;;;;;;;2.87;1.00;;;17.00;99.90;;;;;;4975388;28;20465;-81
2022/06/28 07:18:28;;;;;;;1.67;1.07;;;16.90;99.90;;;;;;4975210;28;20434;-81
2022/06/28 07:20:55;;;;;;;1.37;0.93;;;16.90;99.90;;;;;;4975855;28;20487;-81
2022/06/28 07:23:23;;;;;;;0.60;0.60;;;17.00;99.90;;;;;;4975758;28;20496;-81
2022/06/28 07:25:50;;;;;;;1.00;0.90;;;17.10;99.90;;;;;;4975574;28;20564;-81
2022/06/28 07:28:17;;;;;;;2.37;1.00;;;17.30;99.90;;;;;;4976138;28;20452;-81
2022/06/28 07:30:44;;;;;;;1.50;1.03;;;17.40;99.90;;;;;;4975370;28;20449;-81
2022/06/28 07:33:11;;;;;;;0.97;0.70;;;17.50;99.90;;;;;;4974782;28;21019;-81
2022/06/28 07:35:38;;;;;;;0.80;0.80;;;17.50;99.90;;;;;;4974505;28;20930;-81
2022/06/28 07:38:05;;;;;;;1.20;0.67;;;17.60;99.90;;;;;;4975543;28;20789;-81
2022/06/28 07:40:33;;;;;;;0.90;0.67;;;17.70;99.90;;;;;;4975652;28;20480;-81
2022/06/28 07:42:59;;;;;;;1.33;0.70;;;17.80;99.90;;;;;;4975604;28;20457;-80
2022/06/28 07:45:26;;;;;;;0.97;0.93;;;17.90;99.90;;;;;;4975442;28;20588;-81
2022/06/28 07:47:53;;;;;;;1.37;0.97;;;18.00;99.90;;;;;;4975114;28;20933;-81
2022/06/28 07:53:07;;;;;;;1.00;0.67;;;18.20;99.90;;;;;;4975954;28;20409;-81
2022/06/28 07:55:35;;;;;;;1.33;1.23;;;18.30;99.90;;;;;;4975397;28;20477;-80
2022/06/28 07:58:02;;;;;;;2.20;1.17;;;18.30;99.90;;;;;;4975555;28;20460;-81
2022/06/28 08:00:29;;;;;;;1.47;1.37;;;18.30;99.90;;;;;;4975988;28;20444;-81
2022/06/28 08:02:56;;;;;;;1.77;1.20;;;18.30;99.90;;;;;;4975524;28;20453;-80
2022/06/28 08:05:23;;;;;;;1.20;0.90;;;18.40;99.90;;;;;;4975863;28;20988;-81
2022/06/28 08:07:50;;;;;;;1.27;1.10;;;18.50;99.90;;;;;;4976109;28;20477;-81
2022/06/28 08:10:17;;;;;;;1.03;0.80;;;18.60;99.90;;;;;;4976429;28;20412;-81
2022/06/28 08:12:45;;;;;;;1.30;1.00;;;18.80;99.90;;;;;;4976699;28;20556;-81
2022/06/28 08:15:13;;;;;;;1.03;0.93;;;18.90;99.90;;;;;;4977095;28;20593;-81
2022/06/28 08:17:40;;;;;;;1.67;1.17;;;18.90;99.90;;;;;;4978140;28;20457;-81
2022/06/28 08:20:08;;;;;;;1.53;0.80;;;18.90;99.90;;;;;;4979312;28;20444;-81
2022/06/28 08:22:35;;;;;;;0.67;0.67;;;19.00;99.90;;;;;;4978488;28;20445;-81
2022/06/28 08:25:02;;;;;;;1.13;0.90;;;19.20;99.90;;;;;;4977540;28;20445;-81
2022/06/28 08:27:29;;;;;;;0.67;0.67;;;19.50;99.90;;;;;;4977773;28;20823;-81
2022/06/28 08:29:57;;;;;;;0.80;0.80;;;19.70;99.90;;;;;;4979611;28;20444;-79
2022/06/28 08:32:24;;;;;;;1.33;1.13;;;19.80;99.90;;;;;;4982110;28;20464;-81
2022/06/28 08:34:51;;;;;;;2.80;1.37;;;19.80;99.90;;;;;;4981112;28;20452;-81
2022/06/28 08:37:19;;;;;;;2.00;0.90;;;19.70;99.90;;;;;;4981821;28;20453;-81
2022/06/28 08:39:47;;;;;;;1.17;0.80;;;19.60;99.90;;;;;;4981607;28;20453;-81
2022/06/28 08:42:18;;;;;;;0.60;0.60;;;19.50;99.90;;;;;;4982121;28;20438;-81
2022/06/28 08:44:48;;;;;;;1.10;1.00;;;19.50;99.90;;;;;;4982104;28;20433;-81
2022/06/28 08:47:20;;;;;;;2.73;1.07;;;19.40;99.90;;;;;;4981518;28;20473;-81
2022/06/28 08:49:54;;;;;;;0.77;0.77;;;19.50;99.90;;;;;;4981256;28;20414;-81
2022/06/28 08:52:22;;;;;;;1.20;1.13;;;19.50;99.90;;;;;;4981771;28;20436;-80
2022/06/28 08:54:50;;;;;;;2.40;1.83;;;19.80;99.90;;;;;;4982164;28;20456;-81
2022/06/28 08:57:19;;;;;;;1.33;1.13;;;19.90;99.90;;;;;;4980444;28;20459;-84
2022/06/28 08:59:47;;;;;;;1.10;1.00;;;20.10;99.90;;;;;;4977780;28;20433;-84
2022/06/28 09:02:16;;;;;;;0.80;0.80;;;20.60;99.90;;;;;;4977790;28;20463;-84
2022/06/28 09:04:46;;;;;;;0.87;0.80;;;20.90;99.90;;;;;;4977612;28;20453;-84
2022/06/28 09:07:13;;;;;;;0.80;0.80;;;21.00;99.90;;;;;;4977862;28;20484;-83
2022/06/28 09:09:40;;;;;;;1.47;1.37;;;21.10;99.90;;;;;;4977407;28;20491;-84
2022/06/28 09:12:08;;;;;;;1.73;1.13;;;21.20;99.90;;;;;;4977629;28;20453;-84
2022/06/28 09:14:35;;;;;;;0.90;0.90;;;21.30;99.90;;;;;;4977755;28;20445;-84
2022/06/28 09:17:21;;;;;;;0.90;0.90;;;21.10;99.90;;;;;;4977285;28;20550;-84
2022/06/28 09:19:49;;;;;;;1.03;0.70;;;20.90;99.90;;;;;;4977601;28;20898;-84
2022/06/28 09:22:33;;;;;;;1.20;0.90;;;20.80;99.90;;;;;;4977229;28;20445;-83
2022/06/28 09:25:02;;;;;;;0.83;0.70;;;20.60;99.90;;;;;;4976988;28;20433;-81
2022/06/28 09:27:31;;;;;;;5.40;1.43;;;20.50;99.90;;;;;;4976936;28;20567;-84
2022/06/28 09:29:58;;;;;;;1.07;0.90;;;20.70;99.90;;;;;;4977440;28;20463;-84
2022/06/28 09:32:31;;;;;;;1.63;0.73;;;21.00;99.90;;;;;;4977372;28;20961;-84
2022/06/28 09:35:00;;;;;;;0.93;0.90;;;21.10;99.90;;;;;;4977018;28;20822;-84
2022/06/28 09:37:42;;;;;;;1.57;1.17;;;21.10;99.90;;;;;;4977088;28;20445;-85
2022/06/28 09:40:12;;;;;;;0.70;0.70;;;21.10;99.90;;;;;;4976888;28;20437;-85
2022/06/28 09:42:39;;;;;;;0.80;0.80;;;21.10;99.90;;;;;;4976094;28;20937;-82
2022/06/28 09:45:07;;;;;;;1.13;0.67;;;21.20;99.90;;;;;;4976851;28;20437;-82
2022/06/28 09:47:41;;;;;;;0.90;0.70;;;21.50;99.90;;;;;;4976790;28;20504;-82
2022/06/28 09:50:09;;;;;;;1.07;0.90;;;21.80;99.90;;;;;;4976652;28;20513;-82
2022/06/28 09:52:42;;;;;;;1.17;1.03;;;22.00;99.90;;;;;;4976433;28;20457;-82
2022/06/28 09:55:09;;;;;;;0.90;0.83;;;22.10;99.90;;;;;;4976707;28;20468;-81
2022/06/28 09:57:37;;;;;;;1.73;1.13;;;22.30;99.90;;;;;;4976524;28;20445;-82
2022/06/28 10:00:05;;;;;;;0.87;0.87;;;22.40;99.90;;;;;;4976417;28;20991;-82
2022/06/28 10:02:33;;;;;;;1.10;1.00;;;22.40;99.90;;;;;;4976623;28;20457;-81
2022/06/28 10:05:01;;;;;;;1.23;0.90;;;22.60;99.90;;;;;;4976724;28;20789;-81
2022/06/28 10:07:31;;;;;;;0.97;0.97;;;22.70;99.90;;;;;;4977046;28;20685;-81
2022/06/28 10:09:59;;;;;;;0.80;0.80;;;22.70;99.90;;;;;;4976450;28;20468;-81
2022/06/28 10:15:11;;;;;;;1.13;1.03;;;22.80;99.90;;;;;;4976366;28;21069;-82
2022/06/28 10:17:50;;;;;;;0.60;0.60;;;22.60;99.90;;;;;;4976775;28;20451;-82
2022/06/28 10:20:23;;;;;;;1.37;0.87;;;22.60;99.90;;;;;;4977241;28;20898;-81
2022/06/28 10:22:50;;;;;;;0.70;0.70;;;22.60;99.90;;;;;;4976812;28;20438;-80
2022/06/28 10:25:18;;;;;;;1.03;0.73;;;22.50;99.90;;;;;;4976330;28;20472;-81
2022/06/28 10:27:48;;;;;;;1.53;0.70;;;22.30;99.90;;;;;;4975992;28;21026;-81
2022/06/28 10:30:26;;;;;;;0.80;0.80;;;22.40;99.90;;;;;;4976293;28;20446;-81
2022/06/28 10:32:56;;;;;;;3.33;0.70;;;22.50;99.90;;;;;;4976135;28;20462;-81
2022/06/28 10:36:05;;;;;;;0.70;0.70;;;22.50;99.90;;;;;;4976068;28;20519;-81
2022/06/28 10:38:33;;;;;;;0.70;0.70;;;22.60;99.90;;;;;;4976564;28;20414;-82
2022/06/28 10:41:14;;;;;;;0.93;0.87;;;22.70;99.90;;;;;;4975948;28;20421;-81
2022/06/28 10:43:47;;;;;;;1.00;0.90;;;22.70;99.90;;;;;;4975491;28;20457;-81
2022/06/28 10:46:14;;;;;;;1.80;1.00;;;22.70;99.90;;;;;;4975783;28;20495;-81
2022/06/28 10:49:09;;;;;;;1.00;0.77;;;22.70;99.90;;;;;;4976422;28;20543;-81
2022/06/28 10:51:42;;;;;;;0.80;0.60;;;22.80;99.90;;;;;;4968845;28;20448;-81
2022/06/28 10:54:16;;;;;;;1.70;0.67;;;22.90;99.90;;;;;;4975459;28;20905;-81
2022/06/28 10:56:44;;;;;;;1.10;0.80;;;23.00;99.90;;;;;;4975477;28;20465;-84
2022/06/28 10:59:12;;;;;;;0.63;0.63;;;23.10;99.90;;;;;;4975226;28;20465;-84
2022/06/28 11:01:56;;;;;;;0.80;0.63;;;23.10;99.90;;;;;;4975596;28;20445;-84
2022/06/28 11:04:25;;;;;;;1.27;0.60;;;23.20;99.90;;;;;;4975486;28;20453;-83
2022/06/28 11:06:53;;;;;;;0.80;0.80;;;23.30;99.90;;;;;;4975142;28;20232;-84
2022/06/28 11:09:42;;;;;;;1.10;0.90;;;23.40;99.90;;;;;;4975015;28;20224;-85
2022/06/28 11:12:12;;;;;;;0.83;0.83;;;23.60;99.90;;;;;;4965006;28;20456;-84
2022/06/28 11:14:53;;;;;;;0.70;0.60;;;23.60;99.90;;;;;;4975555;28;20441;-84
2022/06/28 11:17:23;;;;;;;0.63;0.63;;;23.60;99.90;;;;;;4975934;28;20288;-85
2022/06/28 11:19:53;;;;;;;1.53;0.93;;;23.60;99.90;;;;;;4974975;28;20182;-81
2022/06/28 11:22:21;;;;;;;0.80;0.70;;;23.50;99.90;;;;;;4975131;28;20205;-81
2022/06/28 11:24:49;;;;;;;1.33;1.03;;;23.40;99.90;;;;;;4975344;28;20201;-83
2022/06/28 11:27:22;;;;;;;0.60;0.60;;;23.30;99.90;;;;;;4975199;28;20233;-81
2022/06/28 11:29:51;;;;;;;0.80;0.80;;;23.20;99.90;;;;;;4975539;28;20205;-82
2022/06/28 11:32:20;;;;;;;0.60;0.60;;;23.00;99.90;;;;;;4974675;28;20441;-81
2022/06/28 11:34:59;;;;;;;0.80;0.80;;;22.90;99.90;;;;;;4974675;28;20433;-82
2022/06/28 11:37:26;;;;;;;0.70;0.70;;;22.90;99.90;;;;;;4974796;28;20467;-82
2022/06/28 11:40:00;;;;;;;0.70;0.70;;;22.70;99.90;;;;;;4974537;28;20970;-82
2022/06/28 11:42:28;;;;;;;0.70;0.70;;;22.60;99.90;;;;;;4975432;28;20421;-81
2022/06/28 11:44:55;;;;;;;0.60;0.60;;;22.70;99.90;;;;;;4974400;28;20461;-82
2022/06/28 11:47:23;;;;;;;0.67;0.67;;;22.70;99.90;;;;;;4974945;28;20481;-81
2022/06/28 11:50:09;;;;;;;0.67;0.67;;;22.70;99.90;;;;;;4974478;28;20456;-81
2022/06/28 11:52:37;;;;;;;0.60;0.53;;;22.70;99.90;;;;;;4974954;28;20492;-82
2022/06/28 11:55:06;;;;;;;0.60;0.60;;;22.80;99.90;;;;;;4974802;28;20551;-81
2022/06/28 11:57:32;;;;;;;0.77;0.77;;;22.80;99.90;;;;;;4974917;28;20444;-82
2022/06/28 12:00:02;;;;;;;0.60;0.60;;;22.80;99.90;;;;;;4974617;28;20461;-81
2022/06/28 12:02:46;;;;;;;0.50;0.50;;;22.90;99.90;;;;;;4974247;28;20945;-81
2022/06/28 12:05:14;;;;;;;1.00;1.00;;;23.10;99.90;;;;;;4974195;28;20472;-82
2022/06/28 12:07:42;;;;;;;0.90;0.60;;;22.90;99.90;;;;;;4974431;28;20492;-81
2022/06/28 12:10:23;;;;;;;0.90;0.60;;;22.90;99.90;;;;;;4974571;28;20438;-81
2022/06/28 12:12:50;;;;;;;0.60;0.60;;;22.90;99.90;;;;;;4975339;28;20437;-82
2022/06/28 12:15:25;;;;;;;0.50;0.50;;;23.00;99.90;;;;;;4974547;28;20507;-81
2022/06/28 12:17:52;;;;;;;0.60;0.60;;;23.00;99.90;;;;;;4975246;28;20429;-81
2022/06/28 12:20:19;;;;;;;0.60;0.57;;;23.10;99.90;;;;;;4974305;28;20842;-81
2022/06/28 12:22:56;;;;;;;0.50;0.50;;;23.10;99.90;;;;;;4974409;28;20455;-82
2022/06/28 12:25:24;;;;;;;0.70;0.70;;;23.00;99.90;;;;;;4974353;28;20569;-83
2022/06/28 12:27:51;;;;;;;0.70;0.70;;;22.80;99.90;;;;;;4974034;28;20477;-82
2022/06/28 12:30:18;;;;;;;0.50;0.50;;;22.80;99.90;;;;;;4974171;28;20441;-81
2022/06/28 12:32:45;;;;;;;0.60;0.50;;;22.80;99.90;;;;;;4974298;28;20448;-80
2022/06/28 12:35:12;;;;;;;0.50;0.50;;;22.80;99.90;;;;;;4974950;28;20480;-81
2022/06/28 12:37:40;;;;;;;0.63;0.63;;;22.90;99.90;;;;;;4974617;28;20437;-81
2022/06/28 12:40:08;;;;;;;0.47;0.43;;;22.90;99.90;;;;;;4975134;28;20459;-82
2022/06/28 12:42:37;;;;;;;0.60;0.60;;;22.90;99.90;;;;;;4975810;28;20959;-81
2022/06/28 12:45:05;;;;;;;0.93;0.50;;;22.90;99.90;;;;;;4975088;28;20871;-81
2022/06/28 12:47:33;;;;;;;0.60;0.60;;;22.80;99.90;;;;;;4975288;28;20488;-81
2022/06/28 12:50:02;;;;;;;0.50;0.50;;;22.80;99.90;;;;;;4974464;28;20460;-81
2022/06/28 12:52:29;;;;;;;0.50;0.47;;;22.90;99.90;;;;;;4973891;28;20940;-82
2022/06/28 12:54:58;;;;;;;0.50;0.50;;;22.80;99.90;;;;;;4974098;28;20452;-81
2022/06/28 12:57:25;;;;;;;0.70;0.60;;;22.70;99.90;;;;;;4974127;28;20449;-82
2022/06/28 12:59:53;;;;;;;0.63;0.63;;;22.80;99.90;;;;;;4974127;28;20440;-80
2022/06/28 13:02:20;;;;;;;1.17;0.70;;;22.70;99.90;;;;;;4974077;28;20456;-81
2022/06/28 13:04:47;;;;;;;0.60;0.60;;;22.70;99.90;;;;;;4974020;28;20464;-81
2022/06/28 13:07:14;;;;;;;0.77;0.60;;;22.70;99.90;;;;;;4973861;28;20475;-82